Welcome to the New NWS' Forecast!
Most changes are behind the scenes, but click here for differences you might notice.

Terminal Aerodrome Forecast (TAF)

Issued by National Weather Service (NWS)

                            
366 
FTUS42 KKEY 121139
TAFEYW
TAF
KEYW 121139Z 1212/1312 VRB04KT P6SM VCSH SCT025 SCT100
     FM121400 15005KT P6SM VCTS SCT025CB SCT050 BKN100
     FM122000 VRB06KT P6SM FEW025 SCT120=